Time;durP1;ratioP1;P1;durP2;ratioP2;P2;SDS_P1;SDS_P2;PMS_P1;PMS_P2;Temp;Humidity;BMP_temperature;BMP_pressure;BME280_temperature;BME280_humidity;BME280_pressure;Samples;Min_cycle;Max_cycle;Signal;HPM_P1;HPM_P2
2022/01/21 00:01:14;;;;;;;6.57;1.03;;;;;;;;;;4914337;29;20485;-81
2022/01/21 00:03:40;;;;;;;4.90;1.13;;;;;;;;;;4914948;29;20024;-81
2022/01/21 00:06:06;;;;;;;4.50;1.03;;;;;;;;;;4914332;29;20035;-81
2022/01/21 00:08:33;;;;;;;8.60;1.33;;;;;;;;;;4931904;29;20047;-82
2022/01/21 00:11:02;;;;;;;9.10;1.40;;;;;;;;;;4915397;29;20031;-83
2022/01/21 00:13:34;;;;;;;6.45;1.52;;;;;;;;;;4911893;29;20043;-83
2022/01/21 00:16:00;;;;;;;8.83;0.90;;;;;;;;;;4929989;29;20040;-81
2022/01/21 00:18:26;;;;;;;11.63;1.30;;;;;;;;;;4912710;29;20083;-80
2022/01/21 00:31:56;;;;;;;9.13;1.43;;;;;;;;;;4929284;29;20035;-81
2022/01/21 00:34:21;;;;;;;4.53;1.30;;;;;;;;;;4928681;29;20065;-81
2022/01/21 00:36:47;;;;;;;9.00;1.10;;;;;;;;;;4911501;29;20020;-81
2022/01/21 00:39:13;;;;;;;13.93;1.20;;;;;;;;;;4911396;29;20035;-80
2022/01/21 00:41:54;;;;;;;6.17;1.20;;;;;;;;;;4927756;29;20038;-81
2022/01/21 00:44:19;;;;;;;5.90;1.23;;;;;;;;;;4909889;29;20507;-81
2022/01/21 00:46:44;;;;;;;6.93;2.13;;;;;;;;;;4908877;29;20056;-80
2022/01/21 00:49:10;;;;;;;4.90;1.00;;;;;;;;;;4926436;29;20024;-80
2022/01/21 00:51:36;;;;;;;9.13;0.90;;;;;;;;;;4908009;29;20036;-81
2022/01/21 00:54:01;;;;;;;4.87;1.17;;;;;;;;;;4908783;29;20024;-80
2022/01/21 00:56:27;;;;;;;6.37;1.30;;;;;;;;;;4907818;29;20032;-80
2022/01/21 00:58:52;;;;;;;5.83;1.13;;;;;;;;;;4909820;29;20020;-81
2022/01/21 01:01:18;;;;;;;5.33;1.17;;;;;;;;;;4910225;29;20055;-82
2022/01/21 01:03:43;;;;;;;12.70;1.73;;;;;;;;;;4907641;29;20060;-80
2022/01/21 01:06:09;;;;;;;7.07;1.30;;;;;;;;;;4909060;29;20039;-80
2022/01/21 01:08:34;;;;;;;5.33;1.00;;;;;;;;;;4908523;29;20107;-82
2022/01/21 01:11:17;;;;;;;5.30;1.07;;;;;;;;;;4925450;29;20024;-81
2022/01/21 01:21:58;;;;;;;7.83;1.20;;;;;;;;;;4905775;29;20031;-80
2022/01/21 01:29:52;;;;;;;8.73;1.87;;;;;;;;;;4928571;29;20027;-80
2022/01/21 01:32:17;;;;;;;4.53;0.90;;;;;;;;;;4912296;29;20028;-82
2022/01/21 01:34:43;;;;;;;9.97;1.27;;;;;;;;;;4931119;29;20028;-82
2022/01/21 01:37:16;;;;;;;6.07;1.00;;;;;;;;;;4932663;29;20016;-81
2022/01/21 01:39:46;;;;;;;6.00;1.33;;;;;;;;;;4915267;29;20489;-82
2022/01/21 01:50:05;;;;;;;4.90;1.40;;;;;;;;;;4929084;29;20031;-81
2022/01/21 01:52:30;;;;;;;6.83;0.87;;;;;;;;;;4930469;29;20035;-82
2022/01/21 01:54:56;;;;;;;3.97;0.80;;;;;;;;;;4931930;29;20043;-81
2022/01/21 01:57:22;;;;;;;5.40;0.87;;;;;;;;;;4932948;29;20012;-81
2022/01/21 01:59:48;;;;;;;5.97;1.17;;;;;;;;;;4914526;29;20113;-82
2022/01/21 02:02:16;;;;;;;10.80;1.47;;;;;;;;;;4914430;29;20028;-81
2022/01/21 02:04:42;;;;;;;6.30;1.03;;;;;;;;;;4930598;29;20039;-81
2022/01/21 02:07:08;;;;;;;3.67;0.93;;;;;;;;;;4933579;29;20047;-80
2022/01/21 02:09:34;;;;;;;4.33;0.97;;;;;;;;;;4918296;29;20024;-81
2022/01/21 02:11:59;;;;;;;12.30;1.10;;;;;;;;;;4918183;29;20031;-80
2022/01/21 02:14:33;;;;;;;7.60;1.07;;;;;;;;;;4919925;29;20020;-81
2022/01/21 02:22:13;;;;;;;8.73;0.93;;;;;;;;;;4936210;29;20043;-80
2022/01/21 02:27:27;;;;;;;6.28;0.93;;;;;;;;;;4931998;29;20032;-80
2022/01/21 02:30:01;;;;;;;7.67;1.40;;;;;;;;;;4918608;29;20024;-81
2022/01/21 02:32:26;;;;;;;4.90;1.30;;;;;;;;;;4935776;29;20052;-81
2022/01/21 02:34:54;;;;;;;8.83;1.03;;;;;;;;;;4919609;29;20029;-81
2022/01/21 02:37:23;;;;;;;8.47;2.07;;;;;;;;;;4920196;29;20072;-80
2022/01/21 02:39:49;;;;;;;7.87;1.17;;;;;;;;;;4919664;29;20020;-81
2022/01/21 02:42:14;;;;;;;6.63;1.07;;;;;;;;;;4917562;29;20428;-82
2022/01/21 02:44:40;;;;;;;4.73;0.83;;;;;;;;;;4917044;29;20056;-80
2022/01/21 02:47:06;;;;;;;6.37;1.13;;;;;;;;;;4917630;29;20032;-80
2022/01/21 02:49:32;;;;;;;11.43;1.20;;;;;;;;;;4933022;29;20031;-81
2022/01/21 02:52:01;;;;;;;6.67;0.93;;;;;;;;;;4916397;29;20024;-80
2022/01/21 02:54:33;;;;;;;7.33;1.20;;;;;;;;;;4932773;29;20020;-80
2022/01/21 02:56:59;;;;;;;9.07;1.53;;;;;;;;;;4915971;29;20016;-80
2022/01/21 02:59:25;;;;;;;8.37;1.00;;;;;;;;;;4915060;29;20375;-80
2022/01/21 03:01:51;;;;;;;5.67;0.80;;;;;;;;;;4915003;29;20027;-80
2022/01/21 03:04:27;;;;;;;4.53;0.90;;;;;;;;;;4915692;29;20031;-81
2022/01/21 03:06:52;;;;;;;6.57;0.80;;;;;;;;;;4914663;29;20028;-81
2022/01/21 03:09:18;;;;;;;3.23;0.63;;;;;;;;;;4915743;29;20063;-81
2022/01/21 03:11:44;;;;;;;7.10;0.93;;;;;;;;;;4935052;29;20087;-81
2022/01/21 03:14:09;;;;;;;8.97;1.40;;;;;;;;;;4915116;29;20027;-80
2022/01/21 03:16:35;;;;;;;8.57;1.20;;;;;;;;;;4915755;29;20078;-80
2022/01/21 03:19:01;;;;;;;6.97;1.57;;;;;;;;;;4916133;29;20132;-82
2022/01/21 03:21:26;;;;;;;4.23;1.00;;;;;;;;;;4933479;29;20020;-80
2022/01/21 03:23:53;;;;;;;5.03;1.20;;;;;;;;;;4914979;29;20039;-81
2022/01/21 03:26:19;;;;;;;6.90;2.73;;;;;;;;;;4915536;29;20031;-81
2022/01/21 03:28:46;;;;;;;6.70;1.20;;;;;;;;;;4914989;29;20031;-81
2022/01/21 03:31:12;;;;;;;5.73;1.07;;;;;;;;;;4915969;29;20036;-80
2022/01/21 03:33:37;;;;;;;7.83;1.50;;;;;;;;;;4915263;29;20048;-80
2022/01/21 03:36:03;;;;;;;5.27;1.17;;;;;;;;;;4915929;29;20020;-81
2022/01/21 03:38:28;;;;;;;7.47;1.07;;;;;;;;;;4917271;29;20458;-80
2022/01/21 03:40:54;;;;;;;9.00;1.20;;;;;;;;;;4925254;23;20134;-73
2022/01/21 03:43:21;;;;;;;3.47;1.00;;;;;;;;;;4917921;29;20072;-74
2022/01/21 03:45:46;;;;;;;5.57;1.23;;;;;;;;;;4903080;29;20039;-73
2022/01/21 03:48:11;;;;;;;5.83;0.70;;;;;;;;;;4933786;29;20012;-73
2022/01/21 03:50:37;;;;;;;10.67;1.33;;;;;;;;;;4913704;29;20029;-73
2022/01/21 03:53:03;;;;;;;11.10;1.63;;;;;;;;;;4886921;29;20024;-73
2022/01/21 03:55:28;;;;;;;8.77;1.30;;;;;;;;;;4898692;29;20549;-74
2022/01/21 03:57:57;;;;;;;9.00;1.63;;;;;;;;;;4898462;29;20053;-73
2022/01/21 04:00:24;;;;;;;11.13;1.20;;;;;;;;;;4899012;29;20023;-74
2022/01/21 04:02:49;;;;;;;6.07;0.93;;;;;;;;;;4898523;29;20045;-73
2022/01/21 04:05:15;;;;;;;7.87;1.77;;;;;;;;;;4900929;29;20032;-74
2022/01/21 04:07:40;;;;;;;11.33;1.20;;;;;;;;;;4900345;29;20021;-74
2022/01/21 04:10:06;;;;;;;5.73;0.80;;;;;;;;;;4900302;29;20028;-74
2022/01/21 04:12:31;;;;;;;6.53;1.10;;;;;;;;;;4882366;29;20035;-73
2022/01/21 04:14:59;;;;;;;5.20;0.70;;;;;;;;;;4899067;29;20017;-74
2022/01/21 04:17:30;;;;;;;7.85;1.67;;;;;;;;;;4899092;29;20025;-73
2022/01/21 04:19:55;;;;;;;8.57;1.13;;;;;;;;;;4897420;29;20486;-74
2022/01/21 04:22:21;;;;;;;9.03;1.20;;;;;;;;;;4880603;29;20020;-74
2022/01/21 04:24:49;;;;;;;6.90;0.83;;;;;;;;;;4880591;29;20035;-73
2022/01/21 04:27:14;;;;;;;5.73;1.00;;;;;;;;;;4897587;29;20033;-73
2022/01/21 04:29:39;;;;;;;2.53;0.63;;;;;;;;;;4897066;29;20020;-73
2022/01/21 04:32:05;;;;;;;8.03;1.50;;;;;;;;;;4896721;29;20029;-73
2022/01/21 04:34:31;;;;;;;6.53;0.90;;;;;;;;;;4880061;29;20122;-74
2022/01/21 04:36:56;;;;;;;9.33;1.10;;;;;;;;;;4896959;29;20076;-73
2022/01/21 04:39:28;;;;;;;5.50;0.70;;;;;;;;;;4897114;29;20033;-73
2022/01/21 04:47:22;;;;;;;2.80;0.50;;;;;;;;;;4897006;29;20123;-73
2022/01/21 04:49:50;;;;;;;10.63;1.33;;;;;;;;;;4897114;29;20040;-74
2022/01/21 04:52:16;;;;;;;7.75;0.98;;;;;;;;;;4879693;29;20033;-73
2022/01/21 04:54:41;;;;;;;5.43;1.00;;;;;;;;;;4879978;29;20486;-74
2022/01/21 04:57:07;;;;;;;4.73;1.00;;;;;;;;;;4896975;29;20028;-73
2022/01/21 04:59:32;;;;;;;8.00;1.07;;;;;;;;;;4897083;29;20013;-73
2022/01/21 05:01:58;;;;;;;6.77;1.13;;;;;;;;;;4896435;29;20394;-73
2022/01/21 05:04:27;;;;;;;3.83;0.70;;;;;;;;;;4896675;29;20458;-73
2022/01/21 05:06:54;;;;;;;;;;;;;;;;;;4897016;29;20025;-73
2022/01/21 05:09:22;;;;;;;5.07;1.30;;;;;;;;;;4895420;29;19912;-73
2022/01/21 05:11:48;;;;;;;4.93;1.08;;;;;;;;;;4896427;29;20035;-74
2022/01/21 05:14:20;;;;;;;5.77;1.47;;;;;;;;;;4879588;29;20064;-73
2022/01/21 05:16:48;;;;;;;7.20;0.80;;;;;;;;;;4895594;29;20111;-73
2022/01/21 05:19:15;;;;;;;3.50;1.10;;;;;;;;;;4897007;29;20021;-74
2022/01/21 05:21:41;;;;;;;8.17;1.07;;;;;;;;;;4895073;29;20021;-73
2022/01/21 05:24:07;;;;;;;6.80;1.20;;;;;;;;;;4896519;29;20028;-73
2022/01/21 05:26:37;;;;;;;9.20;1.13;;;;;;;;;;4896895;29;20062;-73
2022/01/21 05:29:05;;;;;;;5.63;1.43;;;;;;;;;;4900298;29;20025;-74
2022/01/21 05:31:30;;;;;;;7.68;1.25;;;;;;;;;;4900079;29;20024;-73
2022/01/21 05:33:55;;;;;;;3.37;1.03;;;;;;;;;;4898892;29;20028;-74
2022/01/21 05:36:21;;;;;;;5.77;1.50;;;;;;;;;;4883164;29;20020;-73
2022/01/21 05:38:46;;;;;;;12.80;1.30;;;;;;;;;;4900381;29;20027;-73
2022/01/21 05:41:13;;;;;;;5.10;0.80;;;;;;;;;;4883065;29;20034;-73
2022/01/21 05:43:44;;;;;;;9.87;1.93;;;;;;;;;;4883627;29;20028;-74
2022/01/21 05:46:25;;;;;;;6.43;0.93;;;;;;;;;;4900171;29;20028;-73
2022/01/21 05:48:50;;;;;;;10.73;1.67;;;;;;;;;;4883235;29;20021;-74
2022/01/21 05:51:16;;;;;;;6.30;1.30;;;;;;;;;;4899789;29;20025;-74
2022/01/21 05:53:42;;;;;;;8.27;1.77;;;;;;;;;;4882919;29;20024;-74
2022/01/21 05:56:08;;;;;;;4.47;1.20;;;;;;;;;;4883363;29;20525;-74
2022/01/21 05:58:36;;;;;;;12.70;2.17;;;;;;;;;;4899717;29;20494;-73
2022/01/21 06:01:01;;;;;;;7.88;1.27;;;;;;;;;;4899681;29;20020;-73
2022/01/21 06:03:33;;;;;;;5.30;1.20;;;;;;;;;;4899704;29;20493;-74
2022/01/21 06:05:58;;;;;;;4.30;1.37;;;;;;;;;;4900254;29;20606;-74
2022/01/21 06:08:23;;;;;;;7.60;1.40;;;;;;;;;;4900088;29;20108;-73
2022/01/21 06:10:48;;;;;;;6.70;1.23;;;;;;;;;;4883009;29;20021;-73
2022/01/21 06:13:16;;;;;;;8.10;1.30;;;;;;;;;;4900241;29;20072;-73
2022/01/21 06:15:42;;;;;;;6.85;2.10;;;;;;;;;;4900270;29;20025;-73
2022/01/21 06:18:07;;;;;;;8.20;2.20;;;;;;;;;;4884070;29;20024;-74
2022/01/21 06:20:35;;;;;;;10.43;1.90;;;;;;;;;;4899895;29;20028;-74
2022/01/21 06:23:01;;;;;;;13.05;2.45;;;;;;;;;;4898621;29;20026;-73
2022/01/21 06:25:26;;;;;;;8.70;2.63;;;;;;;;;;4899969;29;20059;-73
2022/01/21 06:27:51;;;;;;;8.60;1.77;;;;;;;;;;4898721;29;20123;-74
2022/01/21 06:30:17;;;;;;;11.17;1.63;;;;;;;;;;4900062;29;20025;-74
2022/01/21 06:32:42;;;;;;;12.23;2.37;;;;;;;;;;4900077;29;20056;-72
2022/01/21 06:35:11;;;;;;;11.23;2.67;;;;;;;;;;4901580;29;20021;-73
2022/01/21 06:37:54;;;;;;;14.93;3.13;;;;;;;;;;4901448;29;20029;-74
2022/01/21 06:40:20;;;;;;;11.90;2.30;;;;;;;;;;4892483;29;20167;-73
2022/01/21 06:42:46;;;;;;;16.40;2.93;;;;;;;;;;4887254;29;20036;-74
2022/01/21 06:45:11;;;;;;;15.30;2.70;;;;;;;;;;4900942;29;20033;-73
2022/01/21 06:47:37;;;;;;;8.17;2.60;;;;;;;;;;4900072;29;20027;-73
2022/01/21 06:50:02;;;;;;;10.87;2.03;;;;;;;;;;4900263;29;20036;-73
2022/01/21 06:52:28;;;;;;;9.80;2.67;;;;;;;;;;4898311;29;20423;-73
2022/01/21 06:54:54;;;;;;;11.40;2.33;;;;;;;;;;4882585;29;20081;-73
2022/01/21 06:57:19;;;;;;;10.73;2.33;;;;;;;;;;4899355;29;20017;-73
2022/01/21 06:59:45;;;;;;;13.23;2.73;;;;;;;;;;4883609;29;20028;-74
2022/01/21 07:02:10;;;;;;;11.33;3.03;;;;;;;;;;4885417;29;20029;-73
2022/01/21 07:04:35;;;;;;;10.00;2.10;;;;;;;;;;4903587;29;20091;-74
2022/01/21 07:07:01;;;;;;;14.70;3.03;;;;;;;;;;4899479;29;20175;-73
2022/01/21 07:09:26;;;;;;;8.70;2.30;;;;;;;;;;4883025;29;20389;-73
2022/01/21 07:11:52;;;;;;;15.40;2.30;;;;;;;;;;4899429;29;20363;-74
2022/01/21 07:14:17;;;;;;;15.67;2.27;;;;;;;;;;4899680;29;20021;-74
2022/01/21 07:16:43;;;;;;;7.33;2.20;;;;;;;;;;4899196;29;20033;-74
2022/01/21 07:19:14;;;;;;;11.27;2.03;;;;;;;;;;4901042;29;20056;-74
2022/01/21 07:21:40;;;;;;;13.47;2.33;;;;;;;;;;4886447;29;20028;-74
2022/01/21 07:24:05;;;;;;;9.57;2.40;;;;;;;;;;4899435;29;20024;-73
2022/01/21 07:26:31;;;;;;;8.97;1.80;;;;;;;;;;4900099;29;20040;-74
2022/01/21 07:28:56;;;;;;;10.23;1.90;;;;;;;;;;4899407;29;20032;-73
2022/01/21 07:31:30;;;;;;;12.00;2.27;;;;;;;;;;4881480;29;20020;-73
2022/01/21 07:33:55;;;;;;;7.67;1.93;;;;;;;;;;4882852;29;20016;-73
2022/01/21 07:36:21;;;;;;;8.30;1.93;;;;;;;;;;4899290;29;20497;-73
2022/01/21 07:38:46;;;;;;;12.40;2.07;;;;;;;;;;4898818;29;20027;-74
2022/01/21 07:41:11;;;;;;;10.57;2.20;;;;;;;;;;4898177;29;20036;-74
2022/01/21 07:43:37;;;;;;;17.57;1.97;;;;;;;;;;4896714;29;20143;-73
2022/01/21 07:46:05;;;;;;;6.17;2.13;;;;;;;;;;4906141;29;20016;-73
2022/01/21 07:48:33;;;;;;;9.83;1.50;;;;;;;;;;4886651;29;20029;-71
2022/01/21 07:51:01;;;;;;;9.73;1.90;;;;;;;;;;4883999;29;20297;-72
2022/01/21 07:53:30;;;;;;;8.88;1.52;;;;;;;;;;4885123;29;20025;-73
2022/01/21 07:55:55;;;;;;;;;;;;;;;;;;4903421;29;20031;-73
2022/01/21 07:58:21;;;;;;;7.73;1.90;;;;;;;;;;4901829;29;19907;-74
2022/01/21 08:00:46;;;;;;;13.40;2.30;;;;;;;;;;4884365;29;20252;-73
2022/01/21 08:03:12;;;;;;;17.47;2.47;;;;;;;;;;4902217;29;20028;-74
2022/01/21 08:05:38;;;;;;;13.37;2.20;;;;;;;;;;4882188;29;20112;-73
2022/01/21 08:08:03;;;;;;;8.97;1.60;;;;;;;;;;4897616;29;20060;-73
2022/01/21 08:10:30;;;;;;;14.50;1.97;;;;;;;;;;4881399;29;20068;-74
2022/01/21 08:12:55;;;;;;;13.77;1.67;;;;;;;;;;4897396;29;20083;-73
2022/01/21 08:15:21;;;;;;;10.40;3.37;;;;;;;;;;4897319;29;20459;-73
2022/01/21 08:17:46;;;;;;;9.83;1.87;;;;;;;;;;4880539;29;20024;-73
2022/01/21 08:20:11;;;;;;;11.23;2.33;;;;;;;;;;4897458;29;20012;-73
2022/01/21 08:22:37;;;;;;;9.17;2.47;;;;;;;;;;4880363;29;20035;-74
2022/01/21 08:25:08;;;;;;;11.57;2.10;;;;;;;;;;4897240;29;20024;-73
2022/01/21 08:28:02;;;;;;;16.53;1.80;;;;;;;;;;4880346;29;20039;-74
2022/01/21 08:30:26;;;;;;;9.57;2.10;;;;;;;;;;4897854;29;20104;-74
2022/01/21 08:32:54;;;;;;;12.17;2.27;;;;;;;;;;4905121;29;20060;-74
2022/01/21 08:35:20;;;;;;;9.80;2.60;;;;;;;;;;4885656;29;20020;-73
2022/01/21 08:37:52;;;;;;;13.63;2.60;;;;;;;;;;4885674;29;20262;-73
2022/01/21 08:40:21;;;;;;;14.93;2.90;;;;;;;;;;4881024;29;20025;-73
2022/01/21 08:42:47;;;;;;;15.17;2.50;;;;;;;;;;4897794;29;20490;-74
2022/01/21 08:45:12;;;;;;;6.13;1.87;;;;;;;;;;4897980;29;20047;-74
2022/01/21 08:47:40;;;;;;;8.93;2.50;;;;;;;;;;4880328;29;20477;-74
2022/01/21 08:50:08;;;;;;;15.97;2.90;;;;;;;;;;4881371;29;20139;-73
2022/01/21 08:52:36;;;;;;;11.50;2.60;;;;;;;;;;4896904;29;20029;-74
2022/01/21 08:55:02;;;;;;;9.00;2.53;;;;;;;;;;4880200;29;20474;-74
2022/01/21 08:57:27;;;;;;;18.40;3.30;;;;;;;;;;4896830;29;20049;-73
2022/01/21 08:59:52;;;;;;;11.00;2.33;;;;;;;;;;4896879;29;20020;-73
2022/01/21 09:02:18;;;;;;;19.57;2.57;;;;;;;;;;4900019;29;20036;-73
2022/01/21 09:04:54;;;;;;;13.13;2.83;;;;;;;;;;4900611;29;20028;-73
2022/01/21 09:07:19;;;;;;;10.57;2.90;;;;;;;;;;4899214;29;20032;-73
2022/01/21 09:09:45;;;;;;;9.67;2.37;;;;;;;;;;4900559;29;20037;-73
2022/01/21 09:12:13;;;;;;;8.10;2.30;;;;;;;;;;4900173;29;20032;-74
2022/01/21 09:14:38;;;;;;;14.25;2.38;;;;;;;;;;4900837;29;20021;-73
2022/01/21 09:17:04;;;;;;;14.80;2.30;;;;;;;;;;4900266;29;20048;-73
2022/01/21 09:19:29;;;;;;;9.70;2.33;;;;;;;;;;4900584;29;20508;-74
2022/01/21 09:21:55;;;;;;;7.50;2.15;;;;;;;;;;4900014;29;20111;-74
2022/01/21 09:24:20;;;;;;;13.95;2.80;;;;;;;;;;4883513;29;20448;-74
2022/01/21 09:26:46;;;;;;;17.50;2.17;;;;;;;;;;4900274;29;20017;-73
2022/01/21 09:29:12;;;;;;;15.15;2.22;;;;;;;;;;4883627;29;20029;-74
2022/01/21 09:31:38;;;;;;;14.20;2.20;;;;;;;;;;4899956;29;20060;-73
2022/01/21 09:34:04;;;;;;;11.80;2.00;;;;;;;;;;4900180;29;20048;-74
2022/01/21 09:36:30;;;;;;;13.20;2.22;;;;;;;;;;4883316;29;20033;-73
2022/01/21 09:39:05;;;;;;;14.50;2.10;;;;;;;;;;4900237;29;20482;-74
2022/01/21 09:41:31;;;;;;;8.82;1.92;;;;;;;;;;4951288;23;20724;-86
2022/01/21 09:44:04;;;;;;;12.77;2.53;;;;;;;;;;4939343;29;20039;-85
2022/01/21 09:46:36;;;;;;;18.60;3.00;;;;;;;;;;4954625;29;20083;-82
2022/01/21 09:49:08;;;;;;;13.07;1.70;;;;;;;;;;4956308;29;20047;-83
2022/01/21 09:51:37;;;;;;;10.88;2.10;;;;;;;;;;4934387;29;20047;-83
2022/01/21 09:54:06;;;;;;;9.13;1.63;;;;;;;;;;4936445;29;20031;-83
2022/01/21 09:56:35;;;;;;;13.23;2.17;;;;;;;;;;4921363;29;20038;-83
2022/01/21 09:59:03;;;;;;;12.88;2.15;;;;;;;;;;4922920;29;20040;-82
2022/01/21 10:01:29;;;;;;;6.68;1.52;;;;;;;;;;4922746;29;20036;-82
2022/01/21 10:03:58;;;;;;;7.53;1.80;;;;;;;;;;4922848;29;20032;-82
2022/01/21 10:06:25;;;;;;;10.23;1.90;;;;;;;;;;4939602;29;20032;-83
2022/01/21 10:08:56;;;;;;;9.77;2.05;;;;;;;;;;4938149;29;20028;-87
2022/01/21 10:11:22;;;;;;;12.18;2.38;;;;;;;;;;4922677;29;20052;-83
2022/01/21 10:13:48;;;;;;;11.98;2.42;;;;;;;;;;4938675;29;20027;-82
2022/01/21 10:16:17;;;;;;;8.80;1.70;;;;;;;;;;4923134;29;20020;-84
2022/01/21 10:19:05;;;;;;;6.20;1.83;;;;;;;;;;4922313;29;20092;-85
2022/01/21 10:21:43;;;;;;;11.25;2.15;;;;;;;;;;4923665;29;20080;-83
2022/01/21 10:24:10;;;;;;;12.02;1.90;;;;;;;;;;4923824;29;20119;-82
2022/01/21 10:26:46;;;;;;;11.40;2.13;;;;;;;;;;4923489;29;20012;-86
2022/01/21 10:29:11;;;;;;;6.78;1.90;;;;;;;;;;4938431;29;20028;-84
2022/01/21 10:31:49;;;;;;;9.77;2.13;;;;;;;;;;4921160;29;20072;-84
2022/01/21 10:34:17;;;;;;;8.50;2.40;;;;;;;;;;4933150;29;20024;-84
2022/01/21 10:36:45;;;;;;;10.50;2.47;;;;;;;;;;4914402;29;20051;-84
2022/01/21 10:39:17;;;;;;;8.10;2.38;;;;;;;;;;4913155;29;20048;-83
2022/01/21 10:41:43;;;;;;;7.53;2.35;;;;;;;;;;4911544;29;20047;-83
2022/01/21 10:44:13;;;;;;;14.35;2.10;;;;;;;;;;4917503;29;20047;-85
2022/01/21 10:46:40;;;;;;;10.10;2.42;;;;;;;;;;4922362;29;20035;-84
2022/01/21 10:49:12;;;;;;;12.75;1.67;;;;;;;;;;4922210;29;20020;-83
2022/01/21 10:51:48;;;;;;;12.00;3.17;;;;;;;;;;4922621;29;20043;-86
2022/01/21 10:54:16;;;;;;;11.65;2.72;;;;;;;;;;4921209;29;20056;-83
2022/01/21 10:57:01;;;;;;;10.50;2.17;;;;;;;;;;4922654;29;20027;-86
2022/01/21 10:59:46;;;;;;;14.70;2.47;;;;;;;;;;4939762;29;20024;-86
2022/01/21 11:02:12;;;;;;;7.55;2.13;;;;;;;;;;4941488;29;20004;-84
2022/01/21 11:04:42;;;;;;;11.30;1.70;;;;;;;;;;4924475;29;20008;-82
2022/01/21 11:07:07;;;;;;;11.80;2.53;;;;;;;;;;4924475;29;20031;-85
2022/01/21 11:09:35;;;;;;;7.65;2.00;;;;;;;;;;4940401;29;20075;-85
2022/01/21 11:12:07;;;;;;;13.77;2.27;;;;;;;;;;4921499;29;20044;-84
2022/01/21 11:14:34;;;;;;;13.25;2.35;;;;;;;;;;4932393;29;20255;-87
2022/01/21 11:17:07;;;;;;;10.40;2.05;;;;;;;;;;4931395;29;20044;-86
2022/01/21 11:19:34;;;;;;;7.80;1.92;;;;;;;;;;4920949;29;20017;-86
2022/01/21 11:22:04;;;;;;;7.05;2.05;;;;;;;;;;4919646;29;20075;-87
2022/01/21 11:24:33;;;;;;;10.57;2.72;;;;;;;;;;4921410;29;20020;-86
2022/01/21 11:27:16;;;;;;;10.88;2.63;;;;;;;;;;4938453;29;20024;-84
2022/01/21 11:29:43;;;;;;;9.43;2.33;;;;;;;;;;4932827;29;20055;-85
2022/01/21 11:32:09;;;;;;;8.07;1.88;;;;;;;;;;4920407;29;20032;-85
2022/01/21 11:34:34;;;;;;;7.72;2.33;;;;;;;;;;4923534;29;20028;-83
2022/01/21 11:37:01;;;;;;;6.38;1.75;;;;;;;;;;4941075;29;20027;-82
2022/01/21 11:39:27;;;;;;;14.55;2.35;;;;;;;;;;4924049;29;20013;-87
2022/01/21 11:41:55;;;;;;;4.28;1.30;;;;;;;;;;4923938;29;20040;-87
2022/01/21 11:44:26;;;;;;;7.80;1.67;;;;;;;;;;4939599;29;20021;-84
2022/01/21 11:49:37;;;;;;;6.10;1.48;;;;;;;;;;4934070;29;20039;-87
2022/01/21 11:52:14;;;;;;;11.20;1.70;;;;;;;;;;4921913;29;20028;-86
2022/01/21 11:54:42;;;;;;;7.55;1.75;;;;;;;;;;4922563;29;20024;-83
2022/01/21 11:57:12;;;;;;;7.68;1.65;;;;;;;;;;4921386;29;20024;-86
2022/01/21 12:02:39;;;;;;;7.68;1.70;;;;;;;;;;4926188;29;20028;-88
2022/01/21 12:05:06;;;;;;;10.45;1.50;;;;;;;;;;4919114;29;20099;-83
2022/01/21 12:07:42;;;;;;;11.57;2.40;;;;;;;;;;4919549;29;20031;-84
2022/01/21 12:10:14;;;;;;;14.65;1.88;;;;;;;;;;4938581;29;20008;-85
2022/01/21 12:12:46;;;;;;;6.30;1.20;;;;;;;;;;4919691;29;20024;-84
2022/01/21 12:15:46;;;;;;;7.32;1.35;;;;;;;;;;4934256;29;20023;-80
2022/01/21 12:18:38;;;;;;;15.32;1.73;;;;;;;;;;4916887;29;20020;-82
2022/01/21 12:21:23;;;;;;;7.95;1.75;;;;;;;;;;4919610;29;20016;-81
2022/01/21 12:23:49;;;;;;;15.70;1.45;;;;;;;;;;4918891;29;20039;-83
2022/01/21 12:26:16;;;;;;;6.25;1.48;;;;;;;;;;4934776;29;20015;-83
2022/01/21 12:28:42;;;;;;;8.23;2.00;;;;;;;;;;4919559;29;20024;-86
2022/01/21 12:31:09;;;;;;;9.63;2.03;;;;;;;;;;4914705;29;20024;-82
2022/01/21 12:34:05;;;;;;;7.63;1.25;;;;;;;;;;4934169;29;20043;-84
2022/01/21 12:36:34;;;;;;;8.00;1.40;;;;;;;;;;4920095;29;20024;-90
2022/01/21 12:41:25;;;;;;;4.95;1.23;;;;;;;;;;4938299;29;19916;-93
2022/01/21 12:43:52;;;;;;;5.22;1.20;;;;;;;;;;4921549;29;20024;-90
2022/01/21 12:46:26;;;;;;;6.63;1.25;;;;;;;;;;4918325;29;20024;-91
2022/01/21 12:48:53;;;;;;;9.20;1.70;;;;;;;;;;4919465;29;20016;-88
2022/01/21 12:56:43;;;;;;;4.90;1.00;;;;;;;;;;4917839;29;20072;-91
2022/01/21 12:59:14;;;;;;;5.43;1.40;;;;;;;;;;4899625;29;20026;-91
2022/01/21 13:01:39;;;;;;;7.57;1.17;;;;;;;;;;4899743;29;20055;-92
2022/01/21 13:04:23;;;;;;;6.15;1.30;;;;;;;;;;4916667;29;20122;-90
2022/01/21 13:06:56;;;;;;;10.90;1.38;;;;;;;;;;4918983;29;20481;-90
2022/01/21 13:09:32;;;;;;;10.07;1.50;;;;;;;;;;4902720;29;20035;-89
2022/01/21 13:12:00;;;;;;;10.43;1.23;;;;;;;;;;4918848;29;20024;-89
2022/01/21 13:17:05;;;;;;;3.45;1.08;;;;;;;;;;4920771;29;20024;-87
2022/01/21 13:19:50;;;;;;;6.47;1.20;;;;;;;;;;4907741;29;20059;-89
2022/01/21 13:22:16;;;;;;;6.97;1.55;;;;;;;;;;4903024;29;20430;-88
2022/01/21 13:25:08;;;;;;;9.27;2.00;;;;;;;;;;4902524;29;20055;-88
2022/01/21 13:27:44;;;;;;;7.15;1.50;;;;;;;;;;4903870;29;20028;-89
2022/01/21 13:30:11;;;;;;;6.47;1.30;;;;;;;;;;4900774;29;20103;-88
2022/01/21 13:32:37;;;;;;;10.82;2.03;;;;;;;;;;4900226;29;20387;-88
2022/01/21 13:35:09;;;;;;;10.68;2.63;;;;;;;;;;4900005;29;20020;-87
2022/01/21 13:37:34;;;;;;;5.90;1.40;;;;;;;;;;4916879;29;20027;-87
2022/01/21 13:40:00;;;;;;;5.75;1.40;;;;;;;;;;4907613;29;20016;-90
2022/01/21 13:42:30;;;;;;;18.75;2.17;;;;;;;;;;4900507;29;20031;-87
2022/01/21 13:45:04;;;;;;;5.60;1.45;;;;;;;;;;4900149;29;20265;-88
2022/01/21 13:47:37;;;;;;;10.15;1.40;;;;;;;;;;4901675;29;20032;-87
2022/01/21 13:50:08;;;;;;;5.45;1.35;;;;;;;;;;4903715;29;20123;-89
2022/01/21 13:53:00;;;;;;;7.85;1.45;;;;;;;;;;4904104;29;20036;-88
2022/01/21 13:55:51;;;;;;;8.57;1.92;;;;;;;;;;4902149;29;20043;-89
2022/01/21 13:58:18;;;;;;;13.05;1.77;;;;;;;;;;4903045;29;20036;-88
2022/01/21 14:00:48;;;;;;;6.95;1.27;;;;;;;;;;4902480;29;20379;-88
2022/01/21 14:03:19;;;;;;;15.38;2.95;;;;;;;;;;4902475;29;20063;-89
2022/01/21 14:05:50;;;;;;;9.50;3.15;;;;;;;;;;4919912;29;20032;-88
2022/01/21 14:08:33;;;;;;;42.22;17.63;;;;;;;;;;4902470;29;20041;-88
2022/01/21 14:11:01;;;;;;;17.00;6.18;;;;;;;;;;4902601;29;20028;-87
2022/01/21 14:13:27;;;;;;;11.73;3.75;;;;;;;;;;4902451;29;20557;-89
2022/01/21 14:15:54;;;;;;;13.60;3.22;;;;;;;;;;4902818;29;20028;-88
2022/01/21 14:18:19;;;;;;;6.40;1.50;;;;;;;;;;4902259;29;20020;-86
2022/01/21 14:20:44;;;;;;;7.32;1.30;;;;;;;;;;4902287;29;20067;-88
2022/01/21 14:23:13;;;;;;;9.05;1.48;;;;;;;;;;4903670;29;20032;-90
2022/01/21 14:25:38;;;;;;;;;;;;;;;;;;4902776;29;20024;-90
2022/01/21 14:28:04;;;;;;;11.07;1.77;;;;;;;;;;4903167;29;19931;-90
2022/01/21 14:30:29;;;;;;;11.70;2.33;;;;;;;;;;4903129;29;20302;-90
2022/01/21 14:32:57;;;;;;;4.13;1.23;;;;;;;;;;4901817;29;20032;-89
2022/01/21 14:35:30;;;;;;;10.77;1.83;;;;;;;;;;4919846;29;20020;-93
2022/01/21 14:38:07;;;;;;;10.15;1.75;;;;;;;;;;4918768;29;20016;-92
2022/01/21 14:40:36;;;;;;;3.83;1.20;;;;;;;;;;4918549;29;20470;-93
2022/01/21 14:43:06;;;;;;;18.45;2.22;;;;;;;;;;4901322;29;20043;-92
2022/01/21 14:45:31;;;;;;;12.68;1.27;;;;;;;;;;4901843;29;20500;-92
2022/01/21 14:47:57;;;;;;;7.35;1.48;;;;;;;;;;4901846;29;20028;-90
2022/01/21 14:50:26;;;;;;;7.75;1.42;;;;;;;;;;4902951;29;20489;-87
2022/01/21 14:52:56;;;;;;;6.10;1.10;;;;;;;;;;4903061;29;20020;-91
2022/01/21 14:55:26;;;;;;;6.18;1.10;;;;;;;;;;4919492;29;20024;-91
2022/01/21 14:57:53;;;;;;;8.43;1.20;;;;;;;;;;4918913;29;20012;-89
2022/01/21 15:00:24;;;;;;;6.85;1.52;;;;;;;;;;4901984;29;20481;-91
2022/01/21 15:03:00;;;;;;;6.22;1.20;;;;;;;;;;4920418;29;20470;-90
2022/01/21 15:05:28;;;;;;;7.50;1.48;;;;;;;;;;4904151;29;20028;-91
2022/01/21 15:07:54;;;;;;;5.85;1.45;;;;;;;;;;4904669;29;20071;-90
2022/01/21 15:10:28;;;;;;;5.07;1.20;;;;;;;;;;4922083;29;20508;-88
2022/01/21 15:15:44;;;;;;;5.95;1.15;;;;;;;;;;4936083;29;20035;-85
2022/01/21 15:18:12;;;;;;;5.75;1.65;;;;;;;;;;4932987;29;20028;-87
2022/01/21 15:20:38;;;;;;;9.35;1.10;;;;;;;;;;4908318;29;20024;-86
2022/01/21 15:23:04;;;;;;;9.20;1.85;;;;;;;;;;4911251;29;20043;-87
2022/01/21 15:25:30;;;;;;;5.00;1.10;;;;;;;;;;4909532;29;20063;-90
2022/01/21 15:27:56;;;;;;;6.07;1.23;;;;;;;;;;4908753;29;20115;-89
2022/01/21 15:30:23;;;;;;;8.88;1.60;;;;;;;;;;4910250;29;20043;-91
2022/01/21 15:32:48;;;;;;;12.45;1.83;;;;;;;;;;4915282;29;20024;-88
2022/01/21 15:35:14;;;;;;;8.90;2.33;;;;;;;;;;4913523;29;20521;-90
2022/01/21 15:37:39;;;;;;;9.35;1.63;;;;;;;;;;4928489;29;20019;-89
2022/01/21 15:40:06;;;;;;;5.47;1.50;;;;;;;;;;4927041;29;20024;-89
2022/01/21 15:42:31;;;;;;;7.00;1.60;;;;;;;;;;4926492;29;20032;-90
2022/01/21 15:44:57;;;;;;;10.60;1.70;;;;;;;;;;4931443;29;20047;-86
2022/01/21 15:47:23;;;;;;;6.95;1.38;;;;;;;;;;4915321;29;20055;-89
2022/01/21 15:49:48;;;;;;;6.18;1.77;;;;;;;;;;4909125;29;20032;-87